createdAt,value
2018-06-15T00:00:16.045Z,92.20
2018-06-15T00:02:49.180Z,91.80
2018-06-15T00:05:18.056Z,92.50
2018-06-15T00:07:46.952Z,92.10
2018-06-15T00:10:15.834Z,91.80
2018-06-15T00:12:44.697Z,91.60
2018-06-15T00:15:13.584Z,91.90
2018-06-15T00:17:42.527Z,91.90
2018-06-15T00:20:11.441Z,91.80
2018-06-15T00:22:40.360Z,92.20
2018-06-15T00:25:09.292Z,92.10
2018-06-15T00:27:38.269Z,91.90
2018-06-15T00:30:07.427Z,91.50
2018-06-15T00:32:36.424Z,91.60
2018-06-15T00:35:05.467Z,91.80
2018-06-15T00:37:35.330Z,91.80
2018-06-15T00:40:04.578Z,92.00
2018-06-15T00:42:33.669Z,91.60
2018-06-15T00:45:02.874Z,91.30
2018-06-15T00:47:31.893Z,90.80
2018-06-15T00:50:00.805Z,91.10
2018-06-15T00:52:29.657Z,91.50
2018-06-15T00:54:58.504Z,91.10
2018-06-15T00:57:39.321Z,90.70
2018-06-15T01:00:08.288Z,91.00
2018-06-15T01:02:37.234Z,90.90
2018-06-15T01:05:06.369Z,90.90
2018-06-15T01:07:35.288Z,91.30
2018-06-15T01:10:04.366Z,90.90
2018-06-15T01:12:33.388Z,91.10
2018-06-15T01:15:02.383Z,90.50
2018-06-15T01:17:31.716Z,91.00
2018-06-15T01:20:01.138Z,90.50
2018-06-15T01:22:30.061Z,90.60
2018-06-15T01:24:58.957Z,90.90
2018-06-15T01:27:27.805Z,90.10
2018-06-15T01:29:56.681Z,90.30
2018-06-15T01:32:25.553Z,90.40
2018-06-15T01:34:54.444Z,90.70
2018-06-15T01:37:23.328Z,90.60
2018-06-15T01:39:52.168Z,90.20
2018-06-15T01:42:21.132Z,90.10
2018-06-15T01:44:50.032Z,90.00
2018-06-15T01:47:18.922Z,90.00
2018-06-15T01:49:47.764Z,90.10
2018-06-15T01:52:16.623Z,90.50
2018-06-15T01:54:45.482Z,90.60
2018-06-15T01:57:14.373Z,90.60
2018-06-15T01:59:43.296Z,90.90
2018-06-15T02:02:12.161Z,90.80
2018-06-15T02:04:41.048Z,90.60
2018-06-15T02:07:09.964Z,90.70
2018-06-15T02:09:38.954Z,90.80
2018-06-15T02:12:07.901Z,91.10
2018-06-15T02:17:05.544Z,91.30
2018-06-15T02:19:34.469Z,91.40
2018-06-15T02:22:03.468Z,91.20
2018-06-15T02:24:32.468Z,91.20
2018-06-15T02:27:01.461Z,91.30
2018-06-15T02:29:30.396Z,91.60
2018-06-15T02:31:59.365Z,91.70
2018-06-15T02:34:28.264Z,91.70
2018-06-15T02:36:57.144Z,91.80
2018-06-15T02:39:26.035Z,91.70
2018-06-15T02:41:54.925Z,91.60
2018-06-15T02:44:23.826Z,91.70
2018-06-15T02:46:52.713Z,91.80
2018-06-15T02:49:21.605Z,91.70
2018-06-15T02:51:50.549Z,91.70
2018-06-15T02:54:19.452Z,91.90
2018-06-15T02:56:48.330Z,91.90
2018-06-15T02:59:17.216Z,91.80
2018-06-15T03:01:46.071Z,91.90
2018-06-15T03:04:14.947Z,92.00
2018-06-15T03:06:43.837Z,92.00
2018-06-15T03:09:12.715Z,91.90
2018-06-15T03:11:41.631Z,92.00
2018-06-15T03:14:10.600Z,91.80
2018-06-15T03:16:39.565Z,92.10
2018-06-15T03:19:08.556Z,92.20
2018-06-15T03:21:37.498Z,92.20
2018-06-15T03:24:06.451Z,92.30
2018-06-15T03:26:35.431Z,92.40
2018-06-15T03:29:04.547Z,92.20
2018-06-15T03:31:33.666Z,92.40
2018-06-15T03:34:02.633Z,92.20
2018-06-15T03:36:31.614Z,92.30
2018-06-15T03:39:00.529Z,92.40
2018-06-15T03:41:29.505Z,92.30
2018-06-15T03:43:58.370Z,92.30
2018-06-15T03:46:27.338Z,92.40
2018-06-15T03:48:56.216Z,92.40
2018-06-15T03:51:25.143Z,92.40
2018-06-15T03:53:54.065Z,92.40
2018-06-15T03:56:22.973Z,92.50
2018-06-15T03:58:51.969Z,92.60
2018-06-15T04:01:20.869Z,92.60
2018-06-15T04:03:49.816Z,92.50
2018-06-15T04:06:18.708Z,92.90
2018-06-15T04:08:47.575Z,92.60
2018-06-15T04:11:16.470Z,92.50
2018-06-15T04:13:45.413Z,92.40
2018-06-15T04:18:43.032Z,92.20
2018-06-15T04:21:11.903Z,92.30
2018-06-15T04:23:40.871Z,92.40
2018-06-15T04:26:09.937Z,92.30
2018-06-15T04:28:38.953Z,92.30
2018-06-15T04:31:07.922Z,92.50
2018-06-15T04:33:37.063Z,92.30
2018-06-15T04:36:06.113Z,92.40
2018-06-15T04:38:35.973Z,92.40
2018-06-15T04:41:04.920Z,92.50
2018-06-15T04:43:34.659Z,92.20
2018-06-15T04:48:32.612Z,92.20
2018-06-15T04:51:02.213Z,91.90
2018-06-15T04:53:31.248Z,92.10
2018-06-15T05:00:57.261Z,92.00
2018-06-15T05:03:26.273Z,92.10
2018-06-15T05:05:55.185Z,91.80
2018-06-15T05:08:24.053Z,91.80
2018-06-15T05:10:52.916Z,92.00
2018-06-15T05:13:21.830Z,92.30
2018-06-15T05:15:50.733Z,91.80
2018-06-15T05:18:19.701Z,91.70
2018-06-15T05:20:48.589Z,91.20
2018-06-15T05:23:17.469Z,91.00
2018-06-15T05:25:46.396Z,91.00
2018-06-15T05:28:15.210Z,91.10
2018-06-15T05:30:44.330Z,91.20
2018-06-15T05:33:13.160Z,91.40
2018-06-15T05:35:42.193Z,91.20
2018-06-15T05:38:11.059Z,91.20
2018-06-15T05:40:39.945Z,91.20
2018-06-15T05:43:08.924Z,90.70
2018-06-15T05:45:37.859Z,90.40
2018-06-15T05:48:06.957Z,87.10
2018-06-15T05:50:35.912Z,87.50
2018-06-15T05:53:05.082Z,88.00
2018-06-15T05:55:34.190Z,87.90
2018-06-15T05:58:03.161Z,87.40
2018-06-15T06:03:00.803Z,86.10
2018-06-15T06:05:29.670Z,86.60
2018-06-15T06:07:58.553Z,85.10
2018-06-15T06:10:27.436Z,84.20
2018-06-15T06:12:56.304Z,83.80
2018-06-15T06:15:25.214Z,84.60
2018-06-15T06:17:54.125Z,84.70
2018-06-15T06:20:22.972Z,85.20
2018-06-15T06:22:51.985Z,83.90
2018-06-15T06:25:20.837Z,83.80
2018-06-15T06:27:50.808Z,82.50
2018-06-15T06:30:19.697Z,82.10
2018-06-15T06:32:48.661Z,81.90
2018-06-15T06:35:18.921Z,82.80
2018-06-15T06:37:47.819Z,85.20
2018-06-15T06:40:20.040Z,80.50
2018-06-15T06:42:53.103Z,79.80
2018-06-15T06:45:21.978Z,78.70
2018-06-15T06:47:50.888Z,79.80
2018-06-15T06:50:19.742Z,79.00
2018-06-15T06:52:48.677Z,80.50
2018-06-15T06:55:17.541Z,81.30
2018-06-15T06:57:46.481Z,80.30
2018-06-15T07:00:15.372Z,84.30
2018-06-15T07:02:45.011Z,78.80
2018-06-15T07:05:14.431Z,79.50
2018-06-15T07:07:43.593Z,80.70
2018-06-15T07:10:12.492Z,78.00
2018-06-15T07:12:41.469Z,88.10
2018-06-15T07:15:10.457Z,79.00
2018-06-15T07:17:40.158Z,80.10
2018-06-15T07:20:09.209Z,86.60
2018-06-15T07:22:38.651Z,77.50
2018-06-15T07:25:07.684Z,77.10
2018-06-15T07:27:36.650Z,89.40
2018-06-15T07:30:05.757Z,79.20
2018-06-15T07:32:34.924Z,75.00
2018-06-15T07:35:04.003Z,76.10
2018-06-15T07:37:33.109Z,75.90
2018-06-15T07:40:02.108Z,81.20
2018-06-15T07:42:31.061Z,74.60
2018-06-15T07:44:59.995Z,75.00
2018-06-15T07:47:28.845Z,73.00
2018-06-15T07:49:58.337Z,72.50
2018-06-15T07:52:27.257Z,84.80
2018-06-15T07:54:56.072Z,77.10
2018-06-15T07:57:24.930Z,71.70
2018-06-15T07:59:53.857Z,72.60
2018-06-15T08:02:22.722Z,70.80
2018-06-15T08:04:51.605Z,75.60
2018-06-15T08:07:20.464Z,84.10
2018-06-15T08:09:49.316Z,79.70
2018-06-15T08:12:18.189Z,71.50
2018-06-15T08:14:47.081Z,71.40
2018-06-15T08:17:16.060Z,72.30
2018-06-15T08:19:44.904Z,86.10
2018-06-15T08:22:13.760Z,68.50
2018-06-15T08:24:42.630Z,69.10
2018-06-15T08:27:11.586Z,71.00
2018-06-15T08:29:40.441Z,69.50
2018-06-15T08:32:09.442Z,69.60
2018-06-15T08:34:38.464Z,68.60
2018-06-15T08:37:07.996Z,67.20
2018-06-15T08:39:36.979Z,68.20
2018-06-15T08:42:06.016Z,65.80
2018-06-15T08:44:34.943Z,74.50
2018-06-15T08:47:03.989Z,75.20
2018-06-15T08:49:33.005Z,67.80
2018-06-15T08:52:02.107Z,72.60
2018-06-15T08:54:31.097Z,71.20
2018-06-15T08:56:59.990Z,72.70
2018-06-15T08:59:28.973Z,73.30
2018-06-15T09:01:57.897Z,66.40
2018-06-15T09:04:27.866Z,64.70
2018-06-15T09:06:56.724Z,64.10
2018-06-15T09:09:25.650Z,65.60
2018-06-15T09:11:54.576Z,67.90
2018-06-15T09:14:23.459Z,65.30
2018-06-15T09:16:52.349Z,64.90
2018-06-15T09:19:21.284Z,64.40
2018-06-15T09:21:50.239Z,64.50
2018-06-15T09:24:19.104Z,66.00
2018-06-15T09:26:48.069Z,65.90
2018-06-15T09:29:16.940Z,64.00
2018-06-15T09:31:45.830Z,62.20
2018-06-15T09:34:14.714Z,65.50
2018-06-15T09:36:43.642Z,65.70
2018-06-15T09:39:12.503Z,65.70
2018-06-15T09:41:41.737Z,64.20
2018-06-15T09:44:10.644Z,69.00
2018-06-15T09:46:40.564Z,81.50
2018-06-15T09:49:09.698Z,65.90
2018-06-15T09:51:38.706Z,61.50
2018-06-15T09:54:07.693Z,61.60
2018-06-15T09:56:36.692Z,64.10
2018-06-15T09:59:05.801Z,63.30
2018-06-15T10:01:34.878Z,60.80
2018-06-15T10:04:03.971Z,60.80
2018-06-15T10:06:32.910Z,60.10
2018-06-15T10:09:01.952Z,78.10
2018-06-15T10:11:30.923Z,61.00
2018-06-15T10:13:59.781Z,73.40
2018-06-15T10:16:28.613Z,67.70
2018-06-15T10:18:57.456Z,73.80
2018-06-15T10:21:26.355Z,61.90
2018-06-15T10:23:55.193Z,61.20
2018-06-15T10:26:24.312Z,63.70
2018-06-15T10:28:53.193Z,61.00
2018-06-15T10:31:22.289Z,60.40
2018-06-15T10:33:51.193Z,61.30
2018-06-15T10:36:20.176Z,60.40
2018-06-15T10:38:49.041Z,60.00
2018-06-15T10:41:17.896Z,62.20
2018-06-15T10:43:46.754Z,60.10
2018-06-15T10:46:15.733Z,63.20
2018-06-15T10:48:44.718Z,62.50
2018-06-15T10:51:13.607Z,61.20
2018-06-15T10:53:42.493Z,72.50
2018-06-15T10:56:11.401Z,61.70
2018-06-15T11:01:08.997Z,59.00
2018-06-15T11:03:37.909Z,61.10
2018-06-15T11:06:06.809Z,65.30
2018-06-15T11:08:35.718Z,61.10
2018-06-15T11:11:04.858Z,66.60
2018-06-15T11:13:33.811Z,59.80
2018-06-15T11:16:02.902Z,61.50
2018-06-15T11:18:31.863Z,64.00
2018-06-15T11:21:00.773Z,59.50
2018-06-15T11:23:29.624Z,59.20
2018-06-15T11:25:58.517Z,59.20
2018-06-15T11:28:27.368Z,58.70
2018-06-15T11:30:56.224Z,58.90
2018-06-15T11:33:25.113Z,57.50
2018-06-15T11:35:54.366Z,56.70
2018-06-15T11:38:24.292Z,56.50
2018-06-15T11:40:53.132Z,59.10
2018-06-15T11:43:22.012Z,57.60
2018-06-15T11:45:50.866Z,56.00
2018-06-15T11:48:19.721Z,55.30
2018-06-15T11:50:48.613Z,55.10
2018-06-15T11:53:17.453Z,58.80
2018-06-15T11:55:46.312Z,55.80
2018-06-15T11:58:15.232Z,56.10
2018-06-15T12:00:44.114Z,61.90
2018-06-15T12:03:12.973Z,74.60
2018-06-15T12:05:41.941Z,73.40
2018-06-15T12:08:10.902Z,61.60
2018-06-15T12:10:39.801Z,78.10
2018-06-15T12:13:08.665Z,79.60
2018-06-15T12:15:37.604Z,79.80
2018-06-15T12:18:07.609Z,80.60
2018-06-15T12:23:05.285Z,76.70
2018-06-15T12:25:34.545Z,63.30
2018-06-15T12:28:03.946Z,56.60
2018-06-15T12:30:33.057Z,58.40
2018-06-15T12:33:02.126Z,56.80
2018-06-15T12:35:31.314Z,70.20
2018-06-15T12:38:00.370Z,55.60
2018-06-15T12:40:30.008Z,56.30
2018-06-15T12:42:58.969Z,59.40
2018-06-15T12:45:28.149Z,66.00
2018-06-15T12:47:57.295Z,61.50
2018-06-15T12:50:27.255Z,72.40
2018-06-15T12:52:56.559Z,71.40
2018-06-15T12:55:26.017Z,60.30
2018-06-15T12:57:55.786Z,59.20
2018-06-15T13:00:24.763Z,53.30
2018-06-15T13:02:53.645Z,54.80
2018-06-15T13:05:22.970Z,66.30
2018-06-15T13:07:51.836Z,71.80
2018-06-15T13:10:20.749Z,58.70
2018-06-15T13:12:50.534Z,53.20
2018-06-15T13:15:19.717Z,65.70
2018-06-15T13:17:48.609Z,57.50
2018-06-15T13:20:17.644Z,60.20
2018-06-15T13:22:46.515Z,70.20
2018-06-15T13:25:15.361Z,68.80
2018-06-15T13:27:44.213Z,56.90
2018-06-15T13:30:13.044Z,62.00
2018-06-15T13:32:41.884Z,57.10
2018-06-15T13:35:10.759Z,56.00
2018-06-15T13:40:08.148Z,52.50
2018-06-15T13:42:37.027Z,72.50
2018-06-15T13:45:05.919Z,71.30
2018-06-15T13:47:34.932Z,76.20
2018-06-15T13:50:04.346Z,77.60
2018-06-15T13:52:33.361Z,77.80
2018-06-15T13:55:02.341Z,72.20
2018-06-15T13:57:31.412Z,57.00
2018-06-15T14:00:00.636Z,56.40
2018-06-15T14:02:29.605Z,63.70
2018-06-15T14:04:58.754Z,64.10
2018-06-15T14:07:27.707Z,63.00
2018-06-15T14:09:57.990Z,78.00
2018-06-15T14:12:27.157Z,56.10
2018-06-15T14:14:56.177Z,55.10
2018-06-15T14:17:25.168Z,53.10
2018-06-15T14:19:54.021Z,51.80
2018-06-15T14:22:22.883Z,51.20
2018-06-15T14:24:51.764Z,50.30
2018-06-15T14:27:20.600Z,52.10
2018-06-15T14:32:17.981Z,51.20
2018-06-15T14:34:46.822Z,51.60
2018-06-15T14:37:15.657Z,52.10
2018-06-15T14:39:44.584Z,51.00
2018-06-15T14:42:13.576Z,52.10
2018-06-15T14:44:42.401Z,54.60
2018-06-15T14:47:11.272Z,54.70
2018-06-15T14:49:40.137Z,69.70
2018-06-15T14:52:08.981Z,58.20
2018-06-15T14:54:37.849Z,58.30
2018-06-15T14:57:06.707Z,65.50
2018-06-15T14:59:36.006Z,70.40
2018-06-15T15:02:04.860Z,56.30
2018-06-15T15:04:33.778Z,73.80
2018-06-15T15:07:02.837Z,58.50
2018-06-15T15:09:31.750Z,60.90
2018-06-15T15:12:00.732Z,57.50
2018-06-15T15:14:29.734Z,73.00
2018-06-15T15:16:58.663Z,55.90
2018-06-15T15:19:27.655Z,57.00
2018-06-15T15:21:56.653Z,73.70
2018-06-15T15:24:25.621Z,67.10
2018-06-15T15:26:54.599Z,69.50
2018-06-15T15:29:23.461Z,76.50
2018-06-15T15:31:52.331Z,73.30
2018-06-15T15:34:21.300Z,75.90
2018-06-15T15:36:50.117Z,79.20
2018-06-15T15:39:19.005Z,77.60
2018-06-15T15:41:47.885Z,75.20
2018-06-15T15:44:16.746Z,64.10
2018-06-15T15:46:45.627Z,73.80
2018-06-15T15:49:14.498Z,79.60
2018-06-15T15:51:43.365Z,64.80
2018-06-15T15:54:12.220Z,61.90
2018-06-15T15:56:41.073Z,79.00
2018-06-15T15:59:10.029Z,76.80
2018-06-15T16:01:38.901Z,71.40
2018-06-15T16:04:07.847Z,80.30
2018-06-15T16:06:37.768Z,65.90
2018-06-15T16:09:07.409Z,78.10
2018-06-15T16:11:36.436Z,79.30
2018-06-15T16:14:05.713Z,78.40
2018-06-15T16:16:34.877Z,80.30
2018-06-15T16:19:04.200Z,72.90
2018-06-15T16:21:33.164Z,60.90
2018-06-15T16:24:02.054Z,67.70
2018-06-15T16:26:31.090Z,76.10
2018-06-15T16:29:00.090Z,73.80
2018-06-15T16:31:29.162Z,71.50
2018-06-15T16:33:58.090Z,79.50
2018-06-15T16:36:27.163Z,80.10
2018-06-15T16:38:56.208Z,59.60
2018-06-15T16:41:25.106Z,62.20
2018-06-15T16:43:54.048Z,61.00
2018-06-15T16:46:22.945Z,79.20
2018-06-15T16:48:51.813Z,68.00
2018-06-15T16:51:20.728Z,72.70
2018-06-15T16:53:49.584Z,72.00
2018-06-15T16:56:18.499Z,62.70
2018-06-15T16:58:47.364Z,73.30
2018-06-15T17:01:16.222Z,64.90
2018-06-15T17:03:45.094Z,78.20
2018-06-15T17:06:13.969Z,57.40
2018-06-15T17:08:42.852Z,78.10
2018-06-15T17:11:11.941Z,79.20
2018-06-15T17:13:40.777Z,77.30
2018-06-15T17:16:09.658Z,64.00
2018-06-15T17:18:38.494Z,61.70
2018-06-15T17:21:07.338Z,69.40
2018-06-15T17:23:36.210Z,78.90
2018-06-15T17:26:05.117Z,76.00
2018-06-15T17:28:34.152Z,71.80
2018-06-15T17:31:03.099Z,66.90
2018-06-15T17:33:32.300Z,78.90
2018-06-15T17:36:01.237Z,78.50
2018-06-15T17:38:30.181Z,80.20
2018-06-15T17:40:59.176Z,79.00
2018-06-15T17:43:28.126Z,77.60
2018-06-15T17:45:57.381Z,69.90
2018-06-15T17:48:26.368Z,60.50
2018-06-15T17:50:55.273Z,59.60
2018-06-15T17:55:52.617Z,79.80
2018-06-15T17:58:21.469Z,61.00
2018-06-15T18:00:50.349Z,64.20
2018-06-15T18:03:19.224Z,60.90
2018-06-15T18:05:48.053Z,75.20
2018-06-15T18:08:16.903Z,60.50
2018-06-15T18:10:45.829Z,64.00
2018-06-15T18:13:14.848Z,67.90
2018-06-15T18:15:43.778Z,76.00
2018-06-15T18:18:12.620Z,64.40
2018-06-15T18:20:41.513Z,74.90
2018-06-15T18:23:10.379Z,76.90
2018-06-15T18:25:39.318Z,59.40
2018-06-15T18:28:08.169Z,64.20
2018-06-15T18:30:37.125Z,65.70
2018-06-15T18:33:06.055Z,63.40
2018-06-15T18:35:34.961Z,58.60
2018-06-15T18:38:03.881Z,70.10
2018-06-15T18:40:32.821Z,66.60
2018-06-15T18:43:01.763Z,62.50
2018-06-15T18:45:30.858Z,68.80
2018-06-15T18:47:59.901Z,59.20
2018-06-15T18:50:29.068Z,59.10
2018-06-15T18:52:57.984Z,61.00
2018-06-15T18:55:26.935Z,59.60
2018-06-15T18:57:55.825Z,58.20
2018-06-15T19:00:24.730Z,58.60
2018-06-15T19:02:53.576Z,57.70
2018-06-15T19:05:22.440Z,58.10
2018-06-15T19:07:51.296Z,58.90
2018-06-15T19:10:20.128Z,62.40
2018-06-15T19:12:49.034Z,68.80
2018-06-15T19:15:17.896Z,70.50
2018-06-15T19:17:46.969Z,63.30
2018-06-15T19:20:15.801Z,63.50
2018-06-15T19:22:44.664Z,66.30
2018-06-15T19:25:13.644Z,65.00
2018-06-15T19:27:42.556Z,62.10
2018-06-15T19:30:11.433Z,62.30
2018-06-15T19:32:40.325Z,62.60
2018-06-15T19:35:09.357Z,62.50
2018-06-15T19:37:38.236Z,63.30
2018-06-15T19:40:07.093Z,62.80
2018-06-15T19:42:36.000Z,62.90
2018-06-15T19:45:05.012Z,63.00
2018-06-15T19:47:34.005Z,63.40
2018-06-15T19:50:02.954Z,63.20
2018-06-15T19:52:31.814Z,62.70
2018-06-15T19:55:00.884Z,63.00
2018-06-15T19:57:29.814Z,64.00
2018-06-15T19:59:58.770Z,63.10
2018-06-15T20:02:27.617Z,63.00
2018-06-15T20:04:56.532Z,63.50
2018-06-15T20:07:25.444Z,63.70
2018-06-15T20:09:54.293Z,63.80
2018-06-15T20:12:23.169Z,63.70
2018-06-15T20:14:52.009Z,63.60
2018-06-15T20:17:20.877Z,63.30
2018-06-15T20:19:49.737Z,63.60
2018-06-15T20:24:47.156Z,63.60
2018-06-15T20:27:16.050Z,64.50
2018-06-15T20:29:44.941Z,63.60
2018-06-15T20:32:13.809Z,63.60
2018-06-15T20:34:42.664Z,63.60
2018-06-15T20:37:11.535Z,63.60
2018-06-15T20:39:40.392Z,63.60
2018-06-15T20:42:09.268Z,63.20
2018-06-15T20:44:38.144Z,63.50
2018-06-15T20:47:07.014Z,63.40
2018-06-15T20:49:35.925Z,63.40
2018-06-15T20:52:04.776Z,63.00
2018-06-15T20:54:33.714Z,62.90
2018-06-15T20:57:02.654Z,62.50
2018-06-15T20:59:31.617Z,62.40
2018-06-15T21:02:00.598Z,62.60
2018-06-15T21:04:29.524Z,61.20
2018-06-15T21:06:58.509Z,61.80
2018-06-15T21:09:27.485Z,61.70
2018-06-15T21:11:56.484Z,61.60
2018-06-15T21:16:53.887Z,61.40
2018-06-15T21:19:22.792Z,61.00
2018-06-15T21:21:51.633Z,61.00
2018-06-15T21:24:20.484Z,60.90
2018-06-15T21:26:49.333Z,61.60
2018-06-15T21:29:18.204Z,61.00
2018-06-15T21:31:47.048Z,61.60
2018-06-15T21:34:15.898Z,61.00
2018-06-15T21:36:44.752Z,61.30
2018-06-15T21:39:13.635Z,61.00
2018-06-15T21:41:42.494Z,60.80
2018-06-15T21:44:11.344Z,61.20
2018-06-15T21:46:40.224Z,61.20
2018-06-15T21:49:09.153Z,60.50
2018-06-15T21:51:38.040Z,60.90
2018-06-15T21:54:06.904Z,60.90
2018-06-15T21:56:35.775Z,61.30
2018-06-15T21:59:04.754Z,60.80
2018-06-15T22:04:02.148Z,61.00
2018-06-15T22:06:31.063Z,61.10
2018-06-15T22:09:00.189Z,61.60
2018-06-15T22:11:29.142Z,62.00
2018-06-15T22:13:58.060Z,61.60
2018-06-15T22:16:30.106Z,61.40
2018-06-15T22:18:59.026Z,62.20
2018-06-15T22:21:27.966Z,61.70
2018-06-15T22:23:56.963Z,61.60
2018-06-15T22:26:25.889Z,61.80
2018-06-15T22:28:54.747Z,61.60
2018-06-15T22:31:23.617Z,61.90
2018-06-15T22:33:52.467Z,62.70
2018-06-15T22:36:21.297Z,62.00
2018-06-15T22:38:50.160Z,63.00
2018-06-15T22:41:19.009Z,62.10
2018-06-15T22:43:48.127Z,62.00
2018-06-15T22:46:17.011Z,62.20
2018-06-15T22:48:45.845Z,61.60
2018-06-15T22:51:14.700Z,61.90
2018-06-15T22:53:43.649Z,62.20
2018-06-15T22:56:12.554Z,62.20
2018-06-15T22:58:41.397Z,61.90
2018-06-15T23:01:10.296Z,61.90
2018-06-15T23:03:39.154Z,63.00
2018-06-15T23:06:08.012Z,62.30
2018-06-15T23:08:37.242Z,62.20
2018-06-15T23:11:06.501Z,62.40
2018-06-15T23:13:35.435Z,62.30
2018-06-15T23:16:04.295Z,62.30
2018-06-15T23:18:33.215Z,62.40
2018-06-15T23:21:02.106Z,62.30
2018-06-15T23:23:30.995Z,62.20
2018-06-15T23:25:59.937Z,62.30
2018-06-15T23:28:28.959Z,63.10
2018-06-15T23:30:57.874Z,62.30
2018-06-15T23:33:26.836Z,62.60
2018-06-15T23:35:55.693Z,62.70
2018-06-15T23:38:24.592Z,63.00
2018-06-15T23:40:53.749Z,62.70
2018-06-15T23:43:22.610Z,62.90
2018-06-15T23:45:51.457Z,64.20
2018-06-15T23:48:20.330Z,62.60
2018-06-15T23:50:49.197Z,63.10
2018-06-15T23:53:18.203Z,63.20
2018-06-15T23:55:47.541Z,63.20
2018-06-15T23:58:16.405Z,62.90
